Time;durP1;ratioP1;P1;durP2;ratioP2;P2;SDS_P1;SDS_P2;PMS_P1;PMS_P2;Temp;Humidity;BMP_temperature;BMP_pressure;BME280_temperature;BME280_humidity;BME280_pressure;Samples;Min_cycle;Max_cycle;Signal;HPM_P1;HPM_P2
2023/07/29 00:01:00;;;;;;;4.70;2.40;;;;;;;-141.23;100.00;62281.09;5016251;28;20372;-74
2023/07/29 00:03:27;;;;;;;6.28;2.35;;;;;;;-141.23;100.00;62281.09;5000113;28;20041;-74
2023/07/29 00:05:53;;;;;;;3.78;2.47;;;;;;;-141.23;100.00;62281.09;5033633;28;20049;-75
2023/07/29 00:08:19;;;;;;;4.32;2.55;;;;;;;-141.23;100.00;62281.09;4999521;28;20052;-72
2023/07/29 00:10:45;;;;;;;4.50;2.55;;;;;;;-141.23;100.00;62281.09;5015445;28;20452;-71
2023/07/29 00:13:11;;;;;;;3.05;2.63;;;;;;;-141.23;100.00;62281.09;5016242;28;20055;-71
2023/07/29 00:15:37;;;;;;;3.08;2.70;;;;;;;-141.23;100.00;62281.09;5015791;28;20044;-71
2023/07/29 00:18:03;;;;;;;4.80;2.72;;;;;;;-141.23;100.00;62281.09;4999437;28;20132;-72
2023/07/29 00:20:30;;;;;;;3.65;2.88;;;;;;;-141.23;100.00;62281.09;5031334;28;20104;-72
2023/07/29 00:22:57;;;;;;;7.10;2.90;;;;;;;-141.23;100.00;62281.09;4998645;28;20236;-73
2023/07/29 00:25:24;;;;;;;3.78;2.97;;;;;;;-141.23;100.00;62281.09;5015344;28;20045;-72
2023/07/29 00:27:49;;;;;;;5.82;3.08;;;;;;;-141.23;100.00;62281.09;5014777;28;20506;-73
2023/07/29 00:30:15;;;;;;;5.85;3.05;;;;;;;-141.23;100.00;62281.09;5032277;28;20045;-73
2023/07/29 00:32:42;;;;;;;3.75;2.88;;;;;;;-141.23;100.00;62281.09;5014858;28;20053;-73
2023/07/29 00:35:08;;;;;;;6.05;3.00;;;;;;;-141.23;100.00;62281.09;5014710;28;20491;-73
2023/07/29 00:37:34;;;;;;;5.00;3.25;;;;;;;-141.23;100.00;62281.09;5015160;28;20882;-73
2023/07/29 00:40:00;;;;;;;3.42;2.88;;;;;;;-141.23;100.00;62281.09;5031261;28;20053;-73
2023/07/29 00:42:26;;;;;;;5.07;2.70;;;;;;;-141.23;100.00;62281.09;4998436;28;20112;-73
2023/07/29 00:44:51;;;;;;;4.30;2.67;;;;;;;-141.23;100.00;62281.09;4998249;28;20100;-73
2023/07/29 00:47:20;;;;;;;4.65;2.30;;;;;;;-141.23;100.00;62281.09;5029667;28;20053;-73
2023/07/29 00:49:49;;;;;;;4.00;2.38;;;;;;;-141.23;100.00;62281.09;4998940;28;20194;-73
2023/07/29 00:52:16;;;;;;;3.60;2.28;;;;;;;-141.23;100.00;62281.09;5014345;28;20503;-73
2023/07/29 00:54:42;;;;;;;2.97;2.10;;;;;;;-141.23;100.00;62281.09;5030855;28;20037;-73
2023/07/29 00:57:10;;;;;;;6.45;2.67;;;;;;;-141.23;100.00;62281.09;5030960;28;20057;-73
2023/07/29 00:59:36;;;;;;;3.33;2.22;;;;;;;-141.23;100.00;62281.09;5031067;28;20408;-72
2023/07/29 01:02:02;;;;;;;2.83;2.35;;;;;;;-141.23;100.00;62281.09;5030655;28;20041;-73
2023/07/29 01:04:31;;;;;;;3.72;2.30;;;;;;;-141.23;100.00;62281.09;5014673;28;20464;-72
2023/07/29 01:07:20;;;;;;;4.28;2.15;;;;;;;-141.23;100.00;62281.09;5014612;28;20052;-73
2023/07/29 01:10:01;;;;;;;6.90;2.55;;;;;;;-141.23;100.00;62281.09;5014459;28;20495;-72
2023/07/29 01:12:42;;;;;;;2.47;2.28;;;;;;;-141.23;100.00;62281.09;4982680;28;20053;-72
2023/07/29 01:15:17;;;;;;;5.60;2.90;;;;;;;-141.23;100.00;62281.09;5014467;28;20084;-72
2023/07/29 01:17:49;;;;;;;5.47;2.72;;;;;;;-141.23;100.00;62281.09;4998117;28;20049;-72
2023/07/29 01:20:17;;;;;;;5.05;2.63;;;;;;;-141.23;100.00;62281.09;4997037;28;20049;-71
2023/07/29 01:22:43;;;;;;;9.85;2.65;;;;;;;-141.23;100.00;62281.09;4998037;28;20372;-71
2023/07/29 01:25:09;;;;;;;4.30;2.58;;;;;;;-141.23;100.00;62281.09;5014447;28;20128;-72
2023/07/29 01:27:35;;;;;;;4.90;2.60;;;;;;;-141.23;100.00;62281.09;4998053;28;20141;-71
2023/07/29 01:30:05;;;;;;;5.35;2.70;;;;;;;-141.23;100.00;62281.09;5014146;28;20060;-71
2023/07/29 01:33:10;;;;;;;3.78;2.70;;;;;;;-141.23;100.00;62281.09;4998177;28;20060;-72
2023/07/29 01:35:45;;;;;;;6.30;2.60;;;;;;;-141.23;100.00;62281.09;5014096;28;20049;-72
2023/07/29 01:38:19;;;;;;;3.55;2.80;;;;;;;-141.23;100.00;62281.09;4998022;28;20048;-73
2023/07/29 01:40:45;;;;;;;3.58;2.67;;;;;;;-141.23;100.00;62281.09;5000319;28;20049;-72
2023/07/29 01:43:12;;;;;;;6.13;3.00;;;;;;;-141.23;100.00;62281.09;5016624;28;20099;-74
2023/07/29 01:45:38;;;;;;;4.53;2.58;;;;;;;-141.23;100.00;62281.09;5014798;28;20041;-72
2023/07/29 01:48:05;;;;;;;5.60;2.50;;;;;;;-141.23;100.00;62281.09;4981621;28;20049;-73
2023/07/29 01:50:34;;;;;;;4.40;2.60;;;;;;;-141.23;100.00;62281.09;5014218;28;20049;-72
2023/07/29 01:53:01;;;;;;;6.85;2.53;;;;;;;-141.23;100.00;62281.09;5031445;28;20057;-72
2023/07/29 01:55:27;;;;;;;4.35;2.53;;;;;;;-141.23;100.00;62281.09;5031152;28;20349;-72
2023/07/29 01:57:53;;;;;;;3.08;2.70;;;;;;;-141.23;100.00;62281.09;5015690;28;20451;-71
2023/07/29 02:00:21;;;;;;;7.25;3.22;;;;;;;-141.23;100.00;62281.09;5034644;28;20056;-71
2023/07/29 02:02:47;;;;;;;5.22;2.50;;;;;;;-141.23;100.00;62281.09;5034448;28;20052;-72
2023/07/29 02:05:13;;;;;;;3.50;2.50;;;;;;;-141.23;100.00;62281.09;5017793;28;20041;-71
2023/07/29 02:07:40;;;;;;;5.55;2.20;;;;;;;-141.23;100.00;62281.09;5018711;28;20099;-71
2023/07/29 02:10:06;;;;;;;4.32;2.35;;;;;;;-141.23;100.00;62281.09;5017564;28;20041;-72
2023/07/29 02:12:32;;;;;;;5.22;2.67;;;;;;;-141.23;100.00;62281.09;5017268;28;20053;-71
2023/07/29 02:14:59;;;;;;;5.18;2.60;;;;;;;-141.23;100.00;62281.09;5016825;28;20506;-71
2023/07/29 02:17:26;;;;;;;3.65;2.63;;;;;;;-141.23;100.00;62281.09;5033433;28;20053;-70
2023/07/29 02:19:52;;;;;;;3.50;2.80;;;;;;;-141.23;100.00;62281.09;5017358;28;20060;-71
2023/07/29 02:22:19;;;;;;;3.45;2.40;;;;;;;-141.23;100.00;62281.09;5022042;28;20052;-71
2023/07/29 02:24:45;;;;;;;4.28;2.50;;;;;;;-141.23;100.00;62281.09;5022124;28;20045;-73
2023/07/29 02:27:11;;;;;;;3.17;2.88;;;;;;;-141.23;100.00;62281.09;5020363;28;20049;-73
2023/07/29 02:29:37;;;;;;;3.67;2.83;;;;;;;-141.23;100.00;62281.09;5002136;28;20045;-73
2023/07/29 02:32:04;;;;;;;3.22;2.75;;;;;;;-141.23;100.00;62281.09;5018620;28;20464;-72
2023/07/29 02:34:30;;;;;;;3.63;2.60;;;;;;;-141.23;100.00;62281.09;5002734;28;20042;-73
2023/07/29 02:36:57;;;;;;;3.05;2.63;;;;;;;-141.23;100.00;62281.09;4984774;28;20088;-73
2023/07/29 02:39:24;;;;;;;4.18;2.70;;;;;;;-141.23;100.00;62281.09;5000280;28;20043;-73
2023/07/29 02:41:50;;;;;;;8.93;2.75;;;;;;;-141.23;100.00;62281.09;5000257;28;20439;-73
2023/07/29 02:44:16;;;;;;;4.18;2.90;;;;;;;-141.23;100.00;62281.09;4983829;28;20050;-73
2023/07/29 02:46:42;;;;;;;3.35;2.78;;;;;;;-141.23;100.00;62281.09;5016693;28;20400;-73
2023/07/29 02:49:08;;;;;;;2.90;2.60;;;;;;;-141.23;100.00;62281.09;5016852;28;20091;-73
2023/07/29 02:51:34;;;;;;;6.15;2.97;;;;;;;-141.23;100.00;62281.09;5000430;28;20081;-74
2023/07/29 02:54:02;;;;;;;6.07;2.80;;;;;;;-141.23;100.00;62281.09;5000290;28;20088;-73
2023/07/29 02:56:28;;;;;;;3.40;2.90;;;;;;;-141.23;100.00;62281.09;5033948;28;20486;-73
2023/07/29 02:58:54;;;;;;;3.50;2.60;;;;;;;-141.23;100.00;62281.09;5032821;28;20041;-73
2023/07/29 03:01:20;;;;;;;3.28;2.70;;;;;;;-141.23;100.00;62281.09;5000133;28;20391;-74
2023/07/29 03:03:46;;;;;;;5.35;2.90;;;;;;;-141.23;100.00;62281.09;4983049;28;20063;-73
2023/07/29 03:06:15;;;;;;;5.55;3.00;;;;;;;-141.23;100.00;62281.09;5015654;28;20060;-73
2023/07/29 03:08:41;;;;;;;7.03;3.03;;;;;;;-141.23;100.00;62281.09;4999256;28;20057;-73
2023/07/29 03:11:09;;;;;;;6.30;3.00;;;;;;;-141.23;100.00;62281.09;5014730;28;20140;-74
2023/07/29 03:13:35;;;;;;;5.50;3.25;;;;;;;-141.23;100.00;62281.09;5015005;28;20220;-73
2023/07/29 03:16:12;;;;;;;5.70;2.92;;;;;;;-141.23;100.00;62281.09;4983314;28;20077;-74
2023/07/29 03:18:40;;;;;;;3.05;2.67;;;;;;;-141.23;100.00;62281.09;5032105;28;20049;-74
2023/07/29 03:21:07;;;;;;;5.20;3.17;;;;;;;-141.23;100.00;62281.09;4999193;28;20463;-74
2023/07/29 03:23:33;;;;;;;5.10;3.10;;;;;;;-141.23;100.00;62281.09;4982878;28;20073;-75
2023/07/29 03:26:00;;;;;;;4.53;3.00;;;;;;;-141.23;100.00;62281.09;4998756;28;20140;-74
2023/07/29 03:28:33;;;;;;;8.05;3.17;;;;;;;-141.23;100.00;62281.09;4998732;28;20091;-74
2023/07/29 03:30:59;;;;;;;7.05;3.15;;;;;;;-141.23;100.00;62281.09;5015236;28;20476;-75
2023/07/29 03:33:26;;;;;;;4.65;3.13;;;;;;;-141.23;100.00;62281.09;4998403;28;20042;-74
2023/07/29 03:35:52;;;;;;;4.63;2.95;;;;;;;-141.23;100.00;62281.09;5015614;28;20392;-74
2023/07/29 03:38:18;;;;;;;3.88;2.67;;;;;;;-141.23;100.00;62281.09;4999137;28;20099;-74
2023/07/29 03:40:45;;;;;;;4.05;3.05;;;;;;;-141.23;100.00;62281.09;5016568;28;20496;-74
2023/07/29 03:43:11;;;;;;;9.32;2.88;;;;;;;-141.23;100.00;62281.09;5033504;28;20053;-74
2023/07/29 03:45:38;;;;;;;4.25;3.03;;;;;;;-141.23;100.00;62281.09;4999805;28;20040;-74
2023/07/29 03:48:05;;;;;;;2.78;2.45;;;;;;;-141.23;100.00;62281.09;5000051;28;20365;-74
2023/07/29 03:50:34;;;;;;;4.55;3.10;;;;;;;-141.23;100.00;62281.09;5032527;28;20037;-74
2023/07/29 03:53:02;;;;;;;3.85;2.78;;;;;;;-141.23;100.00;62281.09;4999306;28;20107;-74
2023/07/29 03:55:29;;;;;;;4.03;2.80;;;;;;;-141.23;100.00;62281.09;5032019;28;20060;-73
2023/07/29 03:57:59;;;;;;;3.05;2.63;;;;;;;-141.23;100.00;62281.09;5015072;28;20053;-73
2023/07/29 04:00:25;;;;;;;4.63;2.50;;;;;;;-141.23;100.00;62281.09;5031463;28;20059;-73
2023/07/29 04:02:51;;;;;;;3.78;2.75;;;;;;;-141.23;100.00;62281.09;4998676;28;20048;-73
2023/07/29 04:05:17;;;;;;;3.40;2.78;;;;;;;-141.23;100.00;62281.09;5031527;28;20383;-72
2023/07/29 04:07:44;;;;;;;3.92;2.70;;;;;;;-141.23;100.00;62281.09;4997705;28;20045;-73
2023/07/29 04:10:11;;;;;;;4.95;2.70;;;;;;;-141.23;100.00;62281.09;5014282;28;20085;-72
2023/07/29 04:12:38;;;;;;;4.47;2.50;;;;;;;-141.23;100.00;62281.09;4997857;28;20053;-72
2023/07/29 04:15:05;;;;;;;4.03;2.88;;;;;;;-141.23;100.00;62281.09;5014159;28;20454;-71
2023/07/29 04:17:32;;;;;;;3.88;2.85;;;;;;;-141.23;100.00;62281.09;5014231;28;20228;-71
2023/07/29 04:19:58;;;;;;;4.35;2.80;;;;;;;-141.23;100.00;62281.09;5014285;28;20073;-72
2023/07/29 04:22:30;;;;;;;6.03;2.50;;;;;;;-141.23;100.00;62281.09;5014132;28;20111;-72
2023/07/29 04:24:57;;;;;;;3.65;2.60;;;;;;;-141.23;100.00;62281.09;5013968;28;20141;-72
2023/07/29 04:27:22;;;;;;;4.18;2.60;;;;;;;-141.23;100.00;62281.09;5014014;28;20148;-73
2023/07/29 04:29:48;;;;;;;2.72;2.40;;;;;;;-141.23;100.00;62281.09;4998102;28;20049;-72
2023/07/29 04:32:15;;;;;;;3.22;2.42;;;;;;;-141.23;100.00;62281.09;5014755;28;20056;-72
2023/07/29 04:34:43;;;;;;;6.90;3.10;;;;;;;-141.23;100.00;62281.09;4998576;28;20064;-71
2023/07/29 04:37:09;;;;;;;5.68;2.53;;;;;;;-141.23;100.00;62281.09;5014216;28;20052;-74
2023/07/29 04:39:35;;;;;;;4.53;2.10;;;;;;;-141.23;100.00;62281.09;5030527;28;20057;-75
2023/07/29 04:42:01;;;;;;;2.60;2.40;;;;;;;-141.23;100.00;62281.09;4997648;28;20060;-74
2023/07/29 04:44:27;;;;;;;4.38;2.30;;;;;;;-141.23;100.00;62281.09;4981300;28;20045;-74
2023/07/29 04:46:54;;;;;;;4.53;2.10;;;;;;;-141.23;100.00;62281.09;4998908;28;20072;-73
2023/07/29 04:49:21;;;;;;;3.92;2.38;;;;;;;-141.23;100.00;62281.09;5015825;28;20144;-72
2023/07/29 04:51:47;;;;;;;2.45;1.95;;;;;;;-141.23;100.00;62281.09;4999014;28;20045;-73
2023/07/29 04:54:13;;;;;;;3.20;2.25;;;;;;;-141.23;100.00;62281.09;5014813;28;20476;-74
2023/07/29 04:56:40;;;;;;;2.80;2.38;;;;;;;-141.23;100.00;62281.09;4998412;28;20046;-73
2023/07/29 04:59:08;;;;;;;3.15;2.15;;;;;;;-141.23;100.00;62281.09;4998332;28;20375;-73
2023/07/29 05:01:35;;;;;;;9.30;2.22;;;;;;;-141.23;100.00;62281.09;5014594;28;20372;-73
2023/07/29 05:04:03;;;;;;;3.17;2.20;;;;;;;-141.23;100.00;62281.09;4998294;28;20045;-74
2023/07/29 05:06:30;;;;;;;4.28;2.08;;;;;;;-141.23;100.00;62281.09;4998505;28;20045;-73
2023/07/29 05:09:15;;;;;;;4.30;1.83;;;;;;;-141.23;100.00;62281.09;5014667;28;20522;-73
2023/07/29 05:11:46;;;;;;;4.82;2.10;;;;;;;-141.23;100.00;62281.09;4998466;28;20148;-74
2023/07/29 05:14:14;;;;;;;3.88;1.98;;;;;;;-141.23;100.00;62281.09;4998644;28;20056;-73
2023/07/29 05:16:42;;;;;;;4.78;2.22;;;;;;;-141.23;100.00;62281.09;5015003;28;20045;-74
2023/07/29 05:19:08;;;;;;;3.47;2.33;;;;;;;-141.23;100.00;62281.09;5031205;28;20049;-74
2023/07/29 05:21:34;;;;;;;2.45;2.10;;;;;;;-141.23;100.00;62281.09;5015177;28;20048;-74
2023/07/29 05:24:00;;;;;;;4.55;1.83;;;;;;;-141.23;100.00;62281.09;5015891;28;20044;-73
2023/07/29 05:26:26;;;;;;;4.03;2.25;;;;;;;-141.23;100.00;62281.09;5007544;28;20049;-73
2023/07/29 05:28:52;;;;;;;2.88;2.28;;;;;;;-141.23;100.00;62281.09;4993539;28;20107;-73
2023/07/29 05:31:18;;;;;;;4.60;2.00;;;;;;;-141.23;100.00;62281.09;5009969;28;20099;-74
2023/07/29 05:33:44;;;;;;;3.78;2.28;;;;;;;-141.23;100.00;62281.09;5041748;28;20049;-73
2023/07/29 05:36:11;;;;;;;3.92;2.17;;;;;;;-141.23;100.00;62281.09;5044824;28;20049;-71
2023/07/29 05:38:37;;;;;;;3.70;1.70;;;;;;;-141.23;100.00;62281.09;5012065;28;20053;-73
2023/07/29 05:41:03;;;;;;;4.88;2.03;;;;;;;-141.23;100.00;62281.09;5034693;28;20045;-73
2023/07/29 05:43:29;;;;;;;2.25;1.90;;;;;;;-141.23;100.00;62281.09;5034243;28;20119;-72
2023/07/29 05:45:54;;;;;;;3.97;1.88;;;;;;;-141.23;100.00;62281.09;5022475;28;20458;-72
2023/07/29 05:48:22;;;;;;;2.15;1.77;;;;;;;-141.23;100.00;62281.09;5037126;28;20067;-74
2023/07/29 05:50:48;;;;;;;3.05;2.05;;;;;;;-141.23;100.00;62281.09;5010194;28;20045;-74
2023/07/29 05:53:15;;;;;;;3.65;2.00;;;;;;;-141.23;100.00;62281.09;5020836;28;20045;-73
2023/07/29 05:55:41;;;;;;;2.78;1.95;;;;;;;-141.23;100.00;62281.09;5026606;28;20185;-75
2023/07/29 05:58:07;;;;;;;2.88;1.70;;;;;;;-141.23;100.00;62281.09;5019256;28;20483;-74
2023/07/29 06:00:33;;;;;;;5.57;2.10;;;;;;;-141.23;100.00;62281.09;5014801;28;20087;-75
2023/07/29 06:03:00;;;;;;;3.28;1.80;;;;;;;-141.23;100.00;62281.09;5015496;28;20033;-75
2023/07/29 06:05:26;;;;;;;1.83;1.67;;;;;;;-141.23;100.00;62281.09;5026749;28;20491;-74
2023/07/29 06:07:52;;;;;;;2.95;2.00;;;;;;;-141.23;100.00;62281.09;4985497;28;20041;-75
2023/07/29 06:10:18;;;;;;;3.45;2.15;;;;;;;-141.23;100.00;62281.09;5034737;28;20052;-74
2023/07/29 06:12:47;;;;;;;2.35;1.95;;;;;;;-141.23;100.00;62281.09;5002777;28;20486;-75
2023/07/29 06:15:21;;;;;;;3.22;2.30;;;;;;;-141.23;100.00;62281.09;5003962;28;20117;-78
2023/07/29 06:17:47;;;;;;;3.58;1.95;;;;;;;-141.23;100.00;62281.09;5001674;28;20091;-74
2023/07/29 06:20:14;;;;;;;3.13;1.90;;;;;;;-141.23;100.00;62281.09;5038309;28;20060;-75
2023/07/29 06:22:42;;;;;;;3.40;2.15;;;;;;;-141.23;100.00;62281.09;5011909;28;20045;-75
2023/07/29 06:25:08;;;;;;;3.70;2.03;;;;;;;-141.23;100.00;62281.09;5010610;28;20037;-74
2023/07/29 06:27:34;;;;;;;2.55;1.95;;;;;;;-141.23;100.00;62281.09;5025625;28;20128;-73
2023/07/29 06:30:00;;;;;;;7.68;2.30;;;;;;;-141.23;100.00;62281.09;5016579;28;20042;-75
2023/07/29 06:32:26;;;;;;;3.72;1.98;;;;;;;-141.23;100.00;62281.09;5033129;28;20384;-73
2023/07/29 06:34:54;;;;;;;4.65;2.17;;;;;;;-141.23;100.00;62281.09;5016959;28;20041;-75
2023/07/29 06:37:20;;;;;;;2.67;2.13;;;;;;;-141.23;100.00;62281.09;5031823;28;20145;-76
2023/07/29 06:39:46;;;;;;;6.30;2.30;;;;;;;-141.23;100.00;62281.09;5050768;28;20052;-74
2023/07/29 06:42:12;;;;;;;3.97;2.10;;;;;;;-141.23;100.00;62281.09;5019722;28;20048;-74
2023/07/29 06:44:38;;;;;;;2.28;2.08;;;;;;;-141.23;100.00;62281.09;5032070;28;20123;-74
2023/07/29 06:47:04;;;;;;;5.35;2.40;;;;;;;-141.23;100.00;62281.09;5033007;28;20128;-74
2023/07/29 06:49:30;;;;;;;6.25;2.50;;;;;;;-141.23;100.00;62281.09;5032028;28;20545;-74
2023/07/29 06:51:56;;;;;;;2.83;2.20;;;;;;;-141.23;100.00;62281.09;5034030;28;20041;-73
2023/07/29 06:54:26;;;;;;;4.50;2.58;;;;;;;-141.23;100.00;62281.09;5033222;28;20053;-74
2023/07/29 06:56:52;;;;;;;3.75;2.28;;;;;;;-141.23;100.00;62281.09;5016966;28;20045;-74
2023/07/29 06:59:18;;;;;;;3.10;2.00;;;;;;;-141.23;100.00;62281.09;5033824;28;20368;-74
2023/07/29 07:01:44;;;;;;;3.70;2.10;;;;;;;-141.23;100.00;62281.09;5033217;28;20053;-73
2023/07/29 07:04:10;;;;;;;3.22;2.22;;;;;;;-141.23;100.00;62281.09;5034140;28;20084;-74
2023/07/29 07:06:35;;;;;;;3.35;2.13;;;;;;;-141.23;100.00;62281.09;5033066;28;20524;-74
2023/07/29 07:09:01;;;;;;;5.03;2.08;;;;;;;-141.23;100.00;62281.09;5016715;28;20124;-74
2023/07/29 07:11:27;;;;;;;3.33;2.30;;;;;;;-141.23;100.00;62281.09;5016788;28;20057;-72
2023/07/29 07:13:53;;;;;;;6.50;1.90;;;;;;;-141.23;100.00;62281.09;5000006;28;20053;-74
2023/07/29 07:16:19;;;;;;;3.65;2.10;;;;;;;-141.23;100.00;62281.09;5033631;28;20060;-76
2023/07/29 07:18:46;;;;;;;2.25;2.00;;;;;;;-141.23;100.00;62281.09;5016436;28;20072;-74
2023/07/29 07:21:11;;;;;;;4.60;2.30;;;;;;;-141.23;100.00;62281.09;5016240;28;20041;-74
2023/07/29 07:23:39;;;;;;;4.75;2.25;;;;;;;-141.23;100.00;62281.09;5032487;28;20482;-74
2023/07/29 07:26:05;;;;;;;3.58;2.30;;;;;;;-141.23;100.00;62281.09;5037922;28;20119;-74
2023/07/29 07:28:30;;;;;;;3.28;2.50;;;;;;;-141.23;100.00;62281.09;5038339;28;20104;-74
2023/07/29 07:30:56;;;;;;;4.68;2.90;;;;;;;-141.23;100.00;62281.09;5055370;28;20491;-73
2023/07/29 07:33:41;;;;;;;5.20;2.65;;;;;;;-141.23;100.00;62281.09;5054523;28;20047;-72
2023/07/29 07:36:07;;;;;;;5.57;2.80;;;;;;;-141.23;100.00;62281.09;5071303;28;20072;-73
2023/07/29 07:38:33;;;;;;;6.07;2.75;;;;;;;-141.23;100.00;62281.09;5038378;28;20113;-73
2023/07/29 07:40:58;;;;;;;4.28;2.65;;;;;;;-141.23;100.00;62281.09;5054784;28;20055;-73
2023/07/29 07:43:25;;;;;;;5.82;2.60;;;;;;;-141.23;100.00;62281.09;5054738;28;20059;-73
2023/07/29 07:45:51;;;;;;;6.25;2.97;;;;;;;-141.23;100.00;62281.09;5037771;28;20135;-73
2023/07/29 07:48:19;;;;;;;7.43;2.42;;;;;;;-141.23;100.00;62281.09;5054622;28;20143;-73
2023/07/29 07:50:45;;;;;;;4.13;2.85;;;;;;;-141.23;100.00;62281.09;5054202;28;20414;-72
2023/07/29 07:53:12;;;;;;;3.88;2.60;;;;;;;-141.23;100.00;62281.09;5071000;28;20045;-73
2023/07/29 07:55:38;;;;;;;4.57;2.70;;;;;;;-141.23;100.00;62281.09;5070531;28;20037;-73
2023/07/29 07:58:04;;;;;;;8.32;2.75;;;;;;;-141.23;100.00;62281.09;5033364;28;20111;-73
2023/07/29 08:00:30;;;;;;;6.85;2.42;;;;;;;-141.23;100.00;62281.09;4999465;28;20069;-72
2023/07/29 08:02:56;;;;;;;3.58;2.35;;;;;;;-141.23;100.00;62281.09;4999318;28;20136;-73
2023/07/29 08:05:22;;;;;;;5.97;2.75;;;;;;;-141.23;100.00;62281.09;4998939;28;20046;-73
2023/07/29 08:07:48;;;;;;;5.28;2.38;;;;;;;-141.23;100.00;62281.09;5015358;28;20136;-73
2023/07/29 08:10:14;;;;;;;4.15;2.83;;;;;;;-141.23;100.00;62281.09;5031912;28;20053;-73
2023/07/29 08:12:39;;;;;;;3.28;2.38;;;;;;;-141.23;100.00;62281.09;5031630;28;20411;-72
2023/07/29 08:15:06;;;;;;;4.07;2.42;;;;;;;-141.23;100.00;62281.09;5033281;28;20109;-73
2023/07/29 08:17:31;;;;;;;6.82;3.03;;;;;;;-141.23;100.00;62281.09;5017698;28;20041;-72
2023/07/29 08:19:58;;;;;;;7.10;2.88;;;;;;;-141.23;100.00;62281.09;5016130;28;20415;-73
2023/07/29 08:22:23;;;;;;;4.65;2.95;;;;;;;-141.23;100.00;62281.09;5031268;28;20033;-72
2023/07/29 08:24:50;;;;;;;4.25;2.95;;;;;;;-141.23;100.00;62281.09;5014881;28;20536;-73
2023/07/29 08:27:15;;;;;;;7.13;2.95;;;;;;;-141.23;100.00;62281.09;5015312;28;20128;-73
2023/07/29 08:29:41;;;;;;;6.13;3.45;;;;;;;-141.23;100.00;62281.09;5014871;28;20041;-73
2023/07/29 08:32:08;;;;;;;4.75;3.28;;;;;;;-141.23;100.00;62281.09;5015013;28;20044;-73
2023/07/29 08:34:33;;;;;;;5.75;3.88;;;;;;;-141.23;100.00;62281.09;5031434;28;20116;-72
2023/07/29 08:37:00;;;;;;;6.28;3.67;;;;;;;-141.23;100.00;62281.09;5047879;28;20145;-73
2023/07/29 08:39:28;;;;;;;6.05;3.30;;;;;;;-141.23;100.00;62281.09;4998467;28;20395;-73
2023/07/29 08:42:05;;;;;;;9.80;3.50;;;;;;;-141.23;100.00;62281.09;5047821;28;20069;-73
2023/07/29 08:44:36;;;;;;;6.88;3.60;;;;;;;-141.23;100.00;62281.09;5032402;28;20056;-73
2023/07/29 08:47:02;;;;;;;6.72;3.35;;;;;;;-141.23;100.00;62281.09;5031592;28;20191;-72
2023/07/29 08:49:30;;;;;;;6.38;3.60;;;;;;;-141.23;100.00;62281.09;5031268;28;20037;-72
2023/07/29 08:51:57;;;;;;;10.50;4.03;;;;;;;-141.23;100.00;62281.09;5015125;28;20104;-73
2023/07/29 08:54:23;;;;;;;4.43;3.47;;;;;;;-141.23;100.00;62281.09;5014620;28;20515;-73
2023/07/29 08:56:50;;;;;;;6.97;4.97;;;;;;;-141.23;100.00;62281.09;5047747;28;20124;-72
2023/07/29 08:59:19;;;;;;;5.35;3.30;;;;;;;-141.23;100.00;62281.09;5014628;28;20052;-72
2023/07/29 09:01:47;;;;;;;7.18;4.07;;;;;;;-141.23;100.00;62281.09;5031176;28;20052;-73
2023/07/29 09:04:12;;;;;;;11.00;4.75;;;;;;;-141.23;100.00;62281.09;5014764;28;20037;-73
2023/07/29 09:06:39;;;;;;;6.30;3.63;;;;;;;-141.23;100.00;62281.09;5030989;28;20051;-72
2023/07/29 09:09:07;;;;;;;3.80;3.00;;;;;;;-141.23;100.00;62281.09;5001805;28;20084;-72
2023/07/29 09:11:35;;;;;;;4.78;3.72;;;;;;;-141.23;100.00;62281.09;5019496;28;20140;-72
2023/07/29 09:14:02;;;;;;;4.10;2.90;;;;;;;-141.23;100.00;62281.09;5017989;28;20057;-73
2023/07/29 09:16:29;;;;;;;4.13;3.58;;;;;;;-141.23;100.00;62281.09;4984755;28;20052;-72
2023/07/29 09:18:57;;;;;;;15.13;7.43;;;;;;;-141.23;100.00;62281.09;5001464;28;20663;-71
2023/07/29 09:21:24;;;;;;;9.50;5.30;;;;;;;-141.23;100.00;62281.09;5034666;28;20053;-71
2023/07/29 09:23:50;;;;;;;12.60;6.65;;;;;;;-141.23;100.00;62281.09;4978056;28;20148;-71
2023/07/29 09:26:24;;;;;;;14.98;9.90;;;;;;;-141.23;100.00;62281.09;4978808;28;20054;-72
2023/07/29 09:28:54;;;;;;;13.43;9.07;;;;;;;-141.23;100.00;62281.09;4962599;28;20077;-73
2023/07/29 09:31:22;;;;;;;14.50;8.45;;;;;;;-141.23;100.00;62281.09;4962023;28;20059;-73
2023/07/29 09:33:48;;;;;;;15.48;9.05;;;;;;;-141.23;100.00;62281.09;4930121;28;20433;-73
2023/07/29 09:36:16;;;;;;;9.48;4.80;;;;;;;-141.23;100.00;62281.09;4961709;28;20161;-71
2023/07/29 09:38:45;;;;;;;7.28;4.55;;;;;;;-141.23;100.00;62281.09;4961714;28;20448;-73
2023/07/29 09:41:13;;;;;;;6.32;4.18;;;;;;;-141.23;100.00;62281.09;4961431;28;20054;-72
2023/07/29 09:43:38;;;;;;;4.50;2.97;;;;;;;-141.23;100.00;62281.09;4961522;28;20043;-72
2023/07/29 09:46:06;;;;;;;5.80;3.03;;;;;;;-141.23;100.00;62281.09;4978032;28;20070;-72
2023/07/29 09:48:34;;;;;;;3.50;2.72;;;;;;;-141.23;100.00;62281.09;4961971;28;20046;-74
2023/07/29 09:51:15;;;;;;;5.43;3.00;;;;;;;-141.23;100.00;62281.09;4946385;28;20038;-73
2023/07/29 09:53:47;;;;;;;5.15;2.58;;;;;;;-141.23;100.00;62281.09;4945673;28;20042;-71
2023/07/29 09:56:16;;;;;;;7.47;3.10;;;;;;;-141.23;100.00;62281.09;4961766;28;20525;-73
2023/07/29 09:58:45;;;;;;;5.00;2.85;;;;;;;-141.23;100.00;62281.09;4946207;28;20052;-74
2023/07/29 10:01:12;;;;;;;6.47;3.33;;;;;;;-141.23;100.00;62281.09;4996646;28;20075;-72
2023/07/29 10:03:37;;;;;;;8.35;3.08;;;;;;;-141.23;100.00;62281.09;4986046;28;20045;-72
2023/07/29 10:06:04;;;;;;;4.85;3.65;;;;;;;-141.23;100.00;62281.09;5018318;28;20095;-73
2023/07/29 10:08:31;;;;;;;7.70;3.58;;;;;;;-141.23;100.00;62281.09;5036902;28;20503;-75
2023/07/29 10:11:01;;;;;;;4.93;2.42;;;;;;;-141.23;100.00;62281.09;5031418;28;20215;-74
2023/07/29 10:13:29;;;;;;;3.70;2.95;;;;;;;-141.23;100.00;62281.09;5042331;28;20206;-71
2023/07/29 10:15:55;;;;;;;4.88;3.55;;;;;;;-141.23;100.00;62281.09;4995682;28;20060;-72
2023/07/29 10:18:27;;;;;;;7.90;3.55;;;;;;;-141.23;100.00;62281.09;4995479;28;20037;-71
2023/07/29 10:20:54;;;;;;;5.90;4.40;;;;;;;-141.23;100.00;62281.09;5014918;28;20045;-70
2023/07/29 10:23:22;;;;;;;5.63;2.75;;;;;;;-141.23;100.00;62281.09;5012303;28;20098;-74
2023/07/29 10:26:02;;;;;;;3.85;2.70;;;;;;;-141.23;100.00;62281.09;5029945;28;20124;-73
2023/07/29 10:28:30;;;;;;;3.75;2.70;;;;;;;-141.23;100.00;62281.09;5014729;28;20041;-72
2023/07/29 10:30:57;;;;;;;6.68;2.53;;;;;;;-141.23;100.00;62281.09;5026255;28;20044;-72
2023/07/29 10:33:24;;;;;;;3.10;2.60;;;;;;;-141.23;100.00;62281.09;5027868;28;20041;-70
2023/07/29 10:35:50;;;;;;;4.72;2.83;;;;;;;-141.23;100.00;62281.09;5024887;28;20549;-72
2023/07/29 10:38:16;;;;;;;3.35;2.90;;;;;;;-141.23;100.00;62281.09;5011375;28;20060;-72
2023/07/29 10:40:45;;;;;;;3.83;2.92;;;;;;;-141.23;100.00;62281.09;4995573;28;20136;-72
2023/07/29 10:43:13;;;;;;;3.92;3.00;;;;;;;-141.23;100.00;62281.09;5041583;28;20037;-73
2023/07/29 10:45:40;;;;;;;3.60;3.00;;;;;;;-141.23;100.00;62281.09;5027906;28;20049;-71
2023/07/29 10:48:11;;;;;;;4.90;3.63;;;;;;;-141.23;100.00;62281.09;5013019;28;20144;-71
2023/07/29 10:50:38;;;;;;;6.25;3.92;;;;;;;-141.23;100.00;62281.09;5044601;28;20041;-72
2023/07/29 10:53:04;;;;;;;6.22;4.15;;;;;;;-141.23;100.00;62281.09;5019798;28;20052;-72
2023/07/29 10:55:38;;;;;;;4.80;3.72;;;;;;;-141.23;100.00;62281.09;5041665;28;20042;-71
2023/07/29 10:58:17;;;;;;;5.50;3.70;;;;;;;-141.23;100.00;62281.09;5002331;28;20073;-72
2023/07/29 11:00:46;;;;;;;5.35;3.50;;;;;;;-141.23;100.00;62281.09;5043043;28;20480;-72
2023/07/29 11:03:16;;;;;;;4.97;3.97;;;;;;;-141.23;100.00;62281.09;5027299;28;20095;-71
2023/07/29 11:05:43;;;;;;;8.68;3.83;;;;;;;-141.23;100.00;62281.09;5017770;28;20052;-72
2023/07/29 11:08:24;;;;;;;4.72;3.85;;;;;;;-141.23;100.00;62281.09;5043379;28;20350;-73
2023/07/29 11:11:05;;;;;;;5.53;3.47;;;;;;;-141.23;100.00;62281.09;5027148;28;20049;-73